createdAt,value
2022-08-03T00:02:25.672Z,18.79
2022-08-03T00:05:27.322Z,18.74
2022-08-03T00:08:28.963Z,18.70
2022-08-03T00:11:30.534Z,18.69
2022-08-03T00:14:32.152Z,18.64
2022-08-03T00:17:52.831Z,18.62
2022-08-03T00:20:55.399Z,18.57
2022-08-03T00:23:57.042Z,18.56
2022-08-03T00:26:58.611Z,18.52
2022-08-03T00:30:00.598Z,18.52
2022-08-03T00:33:02.934Z,18.50
2022-08-03T00:36:04.583Z,18.47
2022-08-03T00:39:06.185Z,18.47
2022-08-03T00:42:07.819Z,18.50
2022-08-03T00:45:09.780Z,18.53
2022-08-03T00:48:30.155Z,18.57
2022-08-03T00:51:34.179Z,18.55
2022-08-03T00:54:38.295Z,18.57
2022-08-03T00:57:40.276Z,18.57
2022-08-03T01:00:41.961Z,18.62
2022-08-03T01:03:43.629Z,18.60
2022-08-03T01:07:19.050Z,18.64
2022-08-03T01:10:54.921Z,18.70
2022-08-03T01:14:20.950Z,18.74
2022-08-03T01:17:44.344Z,18.81
2022-08-03T01:20:54.641Z,18.85
2022-08-03T01:24:05.390Z,18.87
2022-08-03T01:27:18.108Z,18.86
2022-08-03T01:30:20.007Z,18.81
2022-08-03T01:33:35.341Z,18.78
2022-08-03T01:36:40.513Z,18.74
2022-08-03T01:39:44.279Z,18.67
2022-08-03T01:42:47.799Z,18.63
2022-08-03T01:45:50.241Z,18.59
2022-08-03T01:48:53.108Z,18.59
2022-08-03T01:51:56.271Z,18.58
2022-08-03T01:55:07.152Z,18.57
2022-08-03T01:58:08.945Z,18.54
2022-08-03T02:01:13.695Z,18.57
2022-08-03T02:04:18.361Z,18.58
2022-08-03T02:07:20.356Z,18.57
2022-08-03T02:10:35.387Z,18.66
2022-08-03T02:13:38.555Z,18.81
2022-08-03T02:16:40.212Z,19.07
2022-08-03T02:19:43.451Z,19.36
2022-08-03T02:22:46.547Z,19.59
2022-08-03T02:25:57.378Z,19.79
2022-08-03T02:29:06.952Z,19.91
2022-08-03T02:32:14.433Z,20.00
2022-08-03T02:35:18.660Z,20.05
2022-08-03T02:38:23.769Z,20.11
2022-08-03T02:41:31.711Z,20.14
2022-08-03T02:44:37.607Z,20.14
2022-08-03T02:47:53.972Z,20.17
2022-08-03T02:54:04.292Z,20.23
2022-08-03T02:57:09.392Z,20.23
2022-08-03T03:00:12.678Z,20.24
2022-08-03T03:03:15.271Z,20.23
2022-08-03T03:06:19.065Z,20.15
2022-08-03T03:09:21.548Z,20.08
2022-08-03T03:12:25.952Z,19.96
2022-08-03T03:15:29.588Z,19.84
2022-08-03T03:18:33.014Z,19.72
2022-08-03T03:21:36.626Z,19.65
2022-08-03T03:24:39.841Z,19.52
2022-08-03T03:27:42.027Z,19.40
2022-08-03T03:30:53.045Z,19.25
2022-08-03T03:33:58.108Z,19.13
2022-08-03T03:36:59.866Z,19.00
2022-08-03T03:40:01.785Z,18.94
2022-08-03T03:43:07.299Z,18.88
2022-08-03T03:46:13.011Z,18.80
2022-08-03T03:49:14.930Z,18.72
2022-08-03T03:52:17.109Z,18.66
2022-08-03T03:55:19.502Z,18.63
2022-08-03T03:58:21.492Z,18.62
2022-08-03T04:01:26.806Z,18.62
2022-08-03T04:04:47.211Z,18.65
2022-08-03T04:08:30.704Z,18.78
2022-08-03T04:11:38.293Z,19.05
2022-08-03T04:14:41.143Z,19.28
2022-08-03T04:17:43.923Z,19.49
2022-08-03T04:20:48.812Z,19.67
2022-08-03T04:23:55.316Z,19.82
2022-08-03T04:26:59.075Z,19.94
2022-08-03T04:30:04.044Z,20.02
2022-08-03T04:33:08.324Z,20.09
2022-08-03T04:36:14.780Z,20.16
2022-08-03T04:39:27.784Z,20.21
2022-08-03T04:42:31.946Z,20.27
2022-08-03T04:45:34.415Z,20.34
2022-08-03T04:48:37.274Z,20.52
2022-08-03T04:51:40.525Z,20.78
2022-08-03T04:54:50.136Z,20.79
2022-08-03T04:57:52.524Z,20.78
2022-08-03T05:00:54.105Z,20.78
2022-08-03T05:03:55.763Z,20.77
2022-08-03T05:06:57.784Z,20.80
2022-08-03T05:10:03.297Z,20.79
2022-08-03T05:13:05.205Z,20.82
2022-08-03T05:16:06.834Z,20.85
2022-08-03T05:19:08.427Z,20.90
2022-08-03T05:22:10.095Z,20.96
2022-08-03T05:25:17.347Z,21.04
2022-08-03T05:28:22.856Z,21.10
2022-08-03T05:31:24.432Z,21.15
2022-08-03T05:34:26.056Z,21.31
2022-08-03T05:37:27.753Z,21.40
2022-08-03T05:40:29.403Z,21.44
2022-08-03T05:43:32.025Z,21.60
2022-08-03T05:46:33.621Z,21.89
2022-08-03T05:49:35.294Z,21.99
2022-08-03T05:52:37.046Z,22.28
2022-08-03T05:55:38.907Z,22.59
2022-08-03T05:58:40.498Z,22.54
2022-08-03T06:01:45.015Z,22.51
2022-08-03T06:04:47.166Z,23.20
2022-08-03T06:07:48.810Z,24.28
2022-08-03T06:10:50.713Z,25.14
2022-08-03T06:13:52.391Z,25.96
2022-08-03T06:16:54.015Z,27.20
2022-08-03T06:19:55.894Z,27.15
2022-08-03T06:23:00.487Z,26.31
2022-08-03T06:26:03.003Z,25.40
2022-08-03T06:29:04.639Z,24.78
2022-08-03T06:32:10.168Z,24.35
2022-08-03T06:35:11.844Z,24.14
2022-08-03T06:38:13.511Z,24.02
2022-08-03T06:41:15.173Z,24.03
2022-08-03T06:44:16.798Z,24.05
2022-08-03T06:47:18.401Z,24.02
2022-08-03T06:50:24.258Z,24.00
2022-08-03T06:53:27.775Z,23.94
2022-08-03T06:56:29.383Z,23.84
2022-08-03T07:00:06.528Z,23.74
2022-08-03T07:02:57.657Z,23.63
2022-08-03T07:06:00.087Z,23.68
2022-08-03T07:09:02.438Z,23.71
2022-08-03T07:12:06.486Z,23.73
2022-08-03T07:15:08.615Z,23.75
2022-08-03T07:18:29.427Z,23.73
2022-08-03T07:21:31.700Z,23.76
2022-08-03T07:24:33.397Z,23.85
2022-08-03T07:27:35.087Z,23.98
2022-08-03T07:30:36.859Z,24.16
2022-08-03T07:33:38.491Z,24.29
2022-08-03T07:36:40.144Z,24.37
2022-08-03T07:39:41.887Z,24.47
2022-08-03T07:42:43.464Z,24.58
2022-08-03T07:45:45.061Z,24.70
2022-08-03T07:48:46.710Z,24.85
2022-08-03T07:52:08.243Z,24.89
2022-08-03T07:55:10.726Z,24.97
2022-08-03T07:58:19.176Z,24.99
2022-08-03T08:01:23.979Z,25.03
2022-08-03T08:04:25.744Z,25.02
2022-08-03T08:07:27.416Z,25.01
2022-08-03T08:10:29.614Z,25.07
2022-08-03T08:13:31.378Z,25.20
2022-08-03T08:16:33.052Z,25.35
2022-08-03T08:19:34.658Z,25.58
2022-08-03T08:22:40.710Z,25.76
2022-08-03T08:25:43.012Z,25.92
2022-08-03T08:28:44.578Z,26.07
2022-08-03T08:31:46.186Z,26.20
2022-08-03T08:34:48.007Z,26.28
2022-08-03T08:37:50.893Z,26.29
2022-08-03T08:40:56.045Z,26.29
2022-08-03T08:44:00.799Z,26.43
2022-08-03T08:47:03.941Z,26.60
2022-08-03T08:50:14.857Z,26.66
2022-08-03T08:53:32.823Z,26.72
2022-08-03T08:56:35.892Z,26.80
2022-08-03T08:59:48.319Z,26.88
2022-08-03T09:02:51.847Z,26.95
2022-08-03T09:05:56.199Z,27.05
2022-08-03T09:08:58.225Z,27.18
2022-08-03T09:12:20.054Z,27.25
2022-08-03T09:15:24.474Z,27.29
2022-08-03T09:18:32.580Z,27.26
2022-08-03T09:21:35.094Z,27.29
2022-08-03T09:24:41.440Z,27.39
2022-08-03T09:27:45.569Z,27.51
2022-08-03T09:30:59.482Z,27.61
2022-08-03T09:34:05.069Z,27.60
2022-08-03T09:37:15.223Z,27.59
2022-08-03T09:40:35.042Z,27.67
2022-08-03T09:43:47.075Z,27.74
2022-08-03T09:46:51.046Z,27.81
2022-08-03T09:50:08.950Z,27.75
2022-08-03T09:53:12.268Z,27.86
2022-08-03T09:56:34.915Z,27.94
2022-08-03T09:59:35.690Z,28.03
2022-08-03T10:02:43.127Z,28.16
2022-08-03T10:05:45.404Z,28.19
2022-08-03T10:08:47.290Z,28.22
2022-08-03T10:11:49.450Z,28.30
2022-08-03T10:14:52.555Z,28.34
2022-08-03T10:17:54.154Z,28.49
2022-08-03T10:21:01.482Z,28.64
2022-08-03T10:24:05.635Z,28.73
2022-08-03T10:27:08.423Z,28.77
2022-08-03T10:30:11.857Z,28.92
2022-08-03T10:33:50.007Z,29.08
2022-08-03T10:36:41.303Z,29.13
2022-08-03T10:39:53.546Z,29.11
2022-08-03T10:43:03.614Z,29.06
2022-08-03T10:46:08.519Z,29.00
2022-08-03T10:49:13.845Z,29.08
2022-08-03T10:52:31.888Z,29.20
2022-08-03T10:56:05.622Z,29.24
2022-08-03T10:59:08.972Z,29.20
2022-08-03T11:02:14.158Z,29.18
2022-08-03T11:05:27.261Z,29.18
2022-08-03T11:08:36.867Z,29.19
2022-08-03T11:11:40.266Z,29.21
2022-08-03T11:14:49.408Z,29.29
2022-08-03T11:18:10.959Z,29.36
2022-08-03T11:21:12.960Z,29.29
2022-08-03T11:24:36.475Z,29.23
2022-08-03T11:27:39.151Z,29.19
2022-08-03T11:30:41.230Z,29.24
2022-08-03T11:34:02.848Z,29.29
2022-08-03T11:37:22.959Z,29.40
2022-08-03T11:40:51.975Z,29.28
2022-08-03T11:43:53.681Z,29.27
2022-08-03T11:46:55.543Z,29.31
2022-08-03T11:50:00.706Z,29.34
2022-08-03T11:53:02.517Z,29.37
2022-08-03T11:56:04.407Z,29.28
2022-08-03T11:59:20.270Z,29.18
2022-08-03T12:02:23.687Z,29.18
2022-08-03T12:05:52.882Z,29.18
2022-08-03T12:08:54.616Z,29.17
2022-08-03T12:12:00.904Z,29.22
2022-08-03T12:15:04.110Z,29.29
2022-08-03T12:18:15.882Z,29.39
2022-08-03T12:21:18.815Z,29.47
2022-08-03T12:24:20.493Z,29.60
2022-08-03T12:27:28.104Z,29.72
2022-08-03T12:30:29.834Z,29.79
2022-08-03T12:33:31.619Z,29.78
2022-08-03T12:36:35.997Z,29.82
2022-08-03T12:39:37.716Z,29.87
2022-08-03T12:42:59.425Z,29.89
2022-08-03T12:46:08.878Z,29.98
2022-08-03T12:49:13.561Z,30.05
2022-08-03T12:52:16.373Z,30.08
2022-08-03T12:55:22.460Z,30.11
2022-08-03T12:58:35.746Z,30.15
2022-08-03T13:01:37.893Z,30.15
2022-08-03T13:04:57.283Z,30.21
2022-08-03T13:07:59.011Z,30.32
2022-08-03T13:11:20.533Z,30.38
2022-08-03T13:14:23.679Z,30.48
2022-08-03T13:17:26.492Z,30.63
2022-08-03T13:20:28.312Z,30.84
2022-08-03T13:23:30.131Z,30.95
2022-08-03T13:26:31.792Z,30.98
2022-08-03T13:29:34.656Z,31.02
2022-08-03T13:32:36.396Z,31.01
2022-08-03T13:35:38.057Z,31.12
2022-08-03T13:38:39.850Z,31.18
2022-08-03T13:41:41.577Z,31.21
2022-08-03T13:44:43.247Z,31.28
2022-08-03T13:47:44.851Z,31.36
2022-08-03T13:50:46.504Z,31.47
2022-08-03T13:53:48.132Z,31.58
2022-08-03T13:57:00.368Z,31.50
2022-08-03T14:00:27.820Z,31.55
2022-08-03T14:03:30.426Z,31.55
2022-08-03T14:06:32.087Z,31.54
2022-08-03T14:09:33.720Z,31.58
2022-08-03T14:12:35.422Z,31.66
2022-08-03T14:15:38.470Z,31.71
2022-08-03T14:18:42.094Z,31.79
2022-08-03T14:21:44.027Z,31.80
2022-08-03T14:24:54.399Z,31.87
2022-08-03T14:27:56.080Z,31.91
2022-08-03T14:30:57.771Z,31.89
2022-08-03T14:33:59.449Z,31.92
2022-08-03T14:37:01.085Z,31.91
2022-08-03T14:40:02.933Z,31.87
2022-08-03T14:43:04.950Z,31.86
2022-08-03T14:46:06.957Z,31.82
2022-08-03T14:50:37.748Z,31.79
2022-08-03T14:52:30.833Z,31.79
2022-08-03T14:55:38.388Z,31.89
2022-08-03T14:58:40.298Z,31.89
2022-08-03T15:02:03.056Z,31.89
2022-08-03T15:05:04.004Z,31.83
2022-08-03T15:08:09.221Z,31.80
2022-08-03T15:11:11.016Z,31.78
2022-08-03T15:14:13.584Z,31.76
2022-08-03T15:17:16.822Z,31.67
2022-08-03T15:20:27.800Z,31.58
2022-08-03T15:23:34.036Z,31.55
2022-08-03T15:26:41.208Z,31.48
2022-08-03T15:30:05.550Z,31.46
2022-08-03T15:33:05.473Z,31.47
2022-08-03T15:36:07.291Z,31.44
2022-08-03T15:39:08.959Z,31.48
2022-08-03T15:42:10.633Z,31.50
2022-08-03T15:45:12.736Z,31.44
2022-08-03T15:48:14.587Z,31.35
2022-08-03T15:51:16.548Z,31.31
2022-08-03T15:54:18.254Z,31.37
2022-08-03T15:57:20.466Z,31.39
2022-08-03T16:00:33.290Z,31.41
2022-08-03T16:03:35.873Z,31.40
2022-08-03T16:06:37.619Z,31.27
2022-08-03T16:09:42.897Z,31.16
2022-08-03T16:12:46.116Z,31.04
2022-08-03T16:15:49.010Z,30.98
2022-08-03T16:18:50.694Z,30.97
2022-08-03T16:21:52.307Z,31.07
2022-08-03T16:24:54.649Z,31.09
2022-08-03T16:28:07.029Z,31.06
2022-08-03T16:31:09.476Z,30.96
2022-08-03T16:34:11.178Z,30.81
2022-08-03T16:37:37.085Z,30.75
2022-08-03T16:40:35.447Z,30.63
2022-08-03T16:43:37.097Z,30.50
2022-08-03T16:46:41.661Z,30.46
2022-08-03T16:49:53.989Z,30.38
2022-08-03T16:52:57.283Z,30.24
2022-08-03T16:55:58.985Z,30.16
2022-08-03T16:59:00.915Z,30.08
2022-08-03T17:02:10.179Z,30.02
2022-08-03T17:05:12.516Z,29.98
2022-08-03T17:08:16.036Z,29.94
2022-08-03T17:11:18.339Z,29.88
2022-08-03T17:14:28.374Z,29.84
2022-08-03T17:17:37.554Z,29.83
2022-08-03T17:20:58.279Z,29.81
2022-08-03T17:24:12.395Z,29.77
2022-08-03T17:28:49.346Z,29.74
2022-08-03T17:31:00.697Z,29.68
2022-08-03T17:34:07.028Z,29.60
2022-08-03T17:37:26.935Z,29.53
2022-08-03T17:40:31.645Z,29.46
2022-08-03T17:44:13.978Z,29.39
2022-08-03T17:46:55.929Z,29.32
2022-08-03T17:50:00.298Z,29.26
2022-08-03T17:53:24.096Z,29.21
2022-08-03T17:56:46.053Z,29.17
2022-08-03T17:59:58.945Z,29.13
2022-08-03T18:03:20.763Z,29.07
2022-08-03T18:06:29.013Z,29.00
2022-08-03T18:10:03.485Z,28.92
2022-08-03T18:13:10.524Z,28.83
2022-08-03T18:16:19.053Z,28.76
2022-08-03T18:20:02.103Z,28.66
2022-08-03T18:22:44.407Z,28.55
2022-08-03T18:25:56.169Z,28.43
2022-08-03T18:29:01.457Z,28.28
2022-08-03T18:32:12.993Z,28.18
2022-08-03T18:35:15.987Z,28.05
2022-08-03T18:38:18.859Z,27.97
2022-08-03T18:41:33.398Z,27.86
2022-08-03T18:44:45.582Z,27.75
2022-08-03T18:47:56.090Z,27.61
2022-08-03T18:51:24.215Z,27.46
2022-08-03T18:54:58.909Z,27.35
2022-08-03T18:58:15.933Z,27.19
2022-08-03T19:01:58.401Z,27.05
2022-08-03T19:04:58.488Z,26.90
2022-08-03T19:08:05.147Z,26.74
2022-08-03T19:11:10.908Z,26.58
2022-08-03T19:14:16.708Z,26.46
2022-08-03T19:17:21.815Z,26.34
2022-08-03T19:20:28.689Z,26.19
2022-08-03T19:23:34.091Z,26.05
2022-08-03T19:26:41.350Z,25.90
2022-08-03T19:29:58.677Z,25.80
2022-08-03T19:33:06.868Z,25.65
2022-08-03T19:36:10.868Z,25.54
2022-08-03T19:39:14.170Z,25.42
2022-08-03T19:42:24.466Z,25.30
2022-08-03T19:46:06.027Z,25.17
2022-08-03T19:49:15.021Z,25.06
2022-08-03T19:52:20.910Z,24.92
2022-08-03T19:55:32.469Z,24.86
2022-08-03T19:58:35.423Z,24.80
2022-08-03T20:01:50.774Z,24.70
2022-08-03T20:04:52.998Z,24.59
2022-08-03T20:07:56.654Z,24.50
2022-08-03T20:11:00.015Z,24.39
2022-08-03T20:14:05.299Z,24.32
2022-08-03T20:17:09.737Z,24.25
2022-08-03T20:20:11.793Z,24.19
2022-08-03T20:23:18.112Z,24.12
2022-08-03T20:26:20.243Z,24.03
2022-08-03T20:29:42.796Z,23.96
2022-08-03T20:32:52.750Z,23.85
2022-08-03T20:35:54.370Z,23.76
2022-08-03T20:38:58.059Z,23.70
2022-08-03T20:42:04.253Z,23.64
2022-08-03T20:45:13.005Z,23.57
2022-08-03T20:48:18.339Z,23.52
2022-08-03T20:51:48.996Z,23.43
2022-08-03T20:54:46.405Z,23.37
2022-08-03T20:57:49.059Z,23.32
2022-08-03T21:00:51.432Z,23.29
2022-08-03T21:03:55.833Z,23.21
2022-08-03T21:07:16.416Z,23.17
2022-08-03T21:10:18.927Z,23.10
2022-08-03T21:13:30.417Z,23.06
2022-08-03T21:16:34.553Z,23.00
2022-08-03T21:19:39.242Z,22.98
2022-08-03T21:22:55.954Z,22.91
2022-08-03T21:25:58.749Z,22.87
2022-08-03T21:29:03.249Z,22.81
2022-08-03T21:32:07.530Z,22.75
2022-08-03T21:35:10.604Z,22.69
2022-08-03T21:38:29.488Z,22.64
2022-08-03T21:41:32.700Z,22.61
2022-08-03T21:44:34.283Z,22.57
2022-08-03T21:47:37.942Z,22.55
2022-08-03T21:50:42.347Z,22.49
2022-08-03T21:54:02.727Z,22.43
2022-08-03T21:57:13.029Z,22.40
2022-08-03T22:00:17.256Z,22.36
2022-08-03T22:03:22.519Z,22.33
2022-08-03T22:06:27.030Z,22.28
2022-08-03T22:09:30.671Z,22.15
2022-08-03T22:12:33.437Z,22.08
2022-08-03T22:15:35.363Z,22.03
2022-08-03T22:18:38.366Z,22.00
2022-08-03T22:21:40.673Z,21.98
2022-08-03T22:24:44.273Z,21.96
2022-08-03T22:27:46.997Z,21.92
2022-08-03T22:30:49.537Z,21.90
2022-08-03T22:33:52.720Z,21.87
2022-08-03T22:36:57.868Z,21.80
2022-08-03T22:40:13.997Z,21.75
2022-08-03T22:43:16.106Z,21.69
2022-08-03T22:46:21.224Z,21.67
2022-08-03T22:49:22.894Z,21.62
2022-08-03T22:52:24.803Z,21.61
2022-08-03T22:55:27.009Z,21.60
2022-08-03T22:58:28.673Z,21.58
2022-08-03T23:01:36.690Z,21.57
2022-08-03T23:04:41.101Z,21.51
2022-08-03T23:07:44.257Z,21.45
2022-08-03T23:10:47.472Z,21.40
2022-08-03T23:13:56.697Z,21.38
2022-08-03T23:17:03.291Z,21.36
2022-08-03T23:20:08.638Z,21.35
2022-08-03T23:23:11.352Z,21.34
2022-08-03T23:26:16.045Z,21.31
2022-08-03T23:29:20.466Z,21.27
2022-08-03T23:32:25.553Z,21.26
2022-08-03T23:36:27.979Z,21.21
2022-08-03T23:39:09.574Z,21.17
2022-08-03T23:42:17.344Z,21.14
2022-08-03T23:45:20.553Z,21.11
2022-08-03T23:48:22.233Z,21.10
2022-08-03T23:51:52.200Z,21.08
2022-08-03T23:55:26.035Z,21.05
2022-08-03T23:58:49.988Z,21.03
